createdAt,value
2022-12-28T00:00:52.171Z,20.50
2022-12-28T00:01:52.211Z,20.40
2022-12-28T00:02:52.192Z,22.30
2022-12-28T00:03:52.168Z,19.90
2022-12-28T00:04:52.165Z,21.10
2022-12-28T00:05:52.131Z,17.90
2022-12-28T00:06:52.111Z,25.30
2022-12-28T00:07:52.107Z,21.70
2022-12-28T00:08:52.098Z,20.80
2022-12-28T00:09:52.116Z,24.30
2022-12-28T00:11:07.688Z,20.60
2022-12-28T00:11:53.075Z,23.10
2022-12-28T00:12:52.074Z,21.20
2022-12-28T00:13:52.060Z,24.10
2022-12-28T00:14:52.065Z,21.60
2022-12-28T00:15:52.043Z,22.70
2022-12-28T00:16:52.029Z,23.90
2022-12-28T00:17:52.020Z,20.90
2022-12-28T00:18:52.007Z,23.10
2022-12-28T00:19:52.017Z,19.60
2022-12-28T00:20:51.996Z,23.00
2022-12-28T00:21:51.979Z,21.70
2022-12-28T00:22:51.971Z,24.30
2022-12-28T00:23:51.972Z,21.60
2022-12-28T00:24:51.986Z,23.00
2022-12-28T00:25:51.960Z,20.40
2022-12-28T00:26:51.942Z,22.50
2022-12-28T00:27:51.939Z,23.10
2022-12-28T00:28:54.361Z,19.30
2022-12-28T00:29:51.944Z,18.90
2022-12-28T00:30:51.921Z,19.00
2022-12-28T00:31:51.973Z,20.50
2022-12-28T00:32:51.901Z,20.90
2022-12-28T00:33:51.891Z,24.00
2022-12-28T00:34:51.897Z,17.90
2022-12-28T00:35:51.860Z,19.10
2022-12-28T00:37:12.067Z,18.70
2022-12-28T00:37:52.860Z,20.50
2022-12-28T00:38:51.852Z,17.60
2022-12-28T00:39:51.855Z,16.80
2022-12-28T00:40:51.827Z,19.70
2022-12-28T00:41:51.818Z,19.20
2022-12-28T00:42:51.801Z,19.50
2022-12-28T00:43:51.804Z,21.00
2022-12-28T00:44:51.813Z,16.80
2022-12-28T00:45:51.821Z,19.00
2022-12-28T00:46:51.770Z,14.30
2022-12-28T00:47:51.769Z,14.30
2022-12-28T00:48:51.764Z,18.20
2022-12-28T00:49:51.765Z,16.20
2022-12-28T00:50:51.728Z,16.80
2022-12-28T00:51:51.721Z,19.00
2022-12-28T00:52:51.721Z,17.80
2022-12-28T00:53:51.708Z,14.90
2022-12-28T00:54:51.722Z,14.60
2022-12-28T00:55:51.688Z,17.60
2022-12-28T00:56:51.680Z,15.30
2022-12-28T00:57:51.676Z,19.30
2022-12-28T00:58:51.656Z,18.70
2022-12-28T00:59:51.675Z,20.70
2022-12-28T01:00:51.679Z,14.80
2022-12-28T01:01:51.741Z,15.10
2022-12-28T01:02:51.665Z,14.40
2022-12-28T01:03:51.633Z,19.20
2022-12-28T01:04:51.647Z,15.40
2022-12-28T01:05:51.599Z,18.10
2022-12-28T01:06:51.594Z,16.60
2022-12-28T01:07:51.590Z,15.70
2022-12-28T01:08:51.579Z,13.50
2022-12-28T01:09:51.594Z,17.30
2022-12-28T01:10:51.555Z,17.30
2022-12-28T01:11:51.550Z,15.60
2022-12-28T01:12:51.559Z,20.80
2022-12-28T01:13:51.535Z,18.60
2022-12-28T01:14:51.542Z,16.50
2022-12-28T01:15:51.500Z,15.50
2022-12-28T01:16:51.537Z,15.70
2022-12-28T01:17:51.505Z,16.70
2022-12-28T01:18:51.487Z,14.50
2022-12-28T01:19:54.000Z,14.90
2022-12-28T01:20:52.479Z,16.50
2022-12-28T01:21:51.449Z,14.00
2022-12-28T01:22:51.440Z,14.00
2022-12-28T01:23:51.428Z,14.40
2022-12-28T01:24:51.424Z,15.50
2022-12-28T01:25:51.428Z,15.80
2022-12-28T01:26:51.417Z,15.50
2022-12-28T01:27:51.395Z,11.70
2022-12-28T01:28:51.392Z,16.30
2022-12-28T01:29:51.376Z,13.00
2022-12-28T01:30:51.374Z,13.80
2022-12-28T01:31:51.417Z,15.40
2022-12-28T01:32:51.344Z,14.40
2022-12-28T01:33:51.331Z,14.50
2022-12-28T01:34:51.318Z,14.00
2022-12-28T01:35:51.429Z,16.00
2022-12-28T01:36:51.293Z,15.40
2022-12-28T01:37:51.299Z,13.50
2022-12-28T01:38:51.278Z,11.80
2022-12-28T01:39:51.264Z,15.80
2022-12-28T01:40:51.275Z,14.20
2022-12-28T01:41:51.249Z,17.30
2022-12-28T01:42:51.230Z,18.40
2022-12-28T01:43:51.228Z,14.80
2022-12-28T01:44:51.221Z,15.80
2022-12-28T01:45:51.327Z,14.70
2022-12-28T01:46:51.215Z,14.40
2022-12-28T01:47:51.189Z,15.20
2022-12-28T01:48:51.178Z,16.00
2022-12-28T01:49:51.164Z,13.30
2022-12-28T01:50:51.181Z,14.20
2022-12-28T01:51:51.144Z,10.30
2022-12-28T01:52:51.136Z,14.50
2022-12-28T01:53:51.144Z,12.20
2022-12-28T01:54:51.116Z,18.10
2022-12-28T01:55:51.926Z,16.20
2022-12-28T01:56:51.092Z,14.70
2022-12-28T01:57:51.069Z,14.40
2022-12-28T01:58:51.077Z,13.20
2022-12-28T01:59:51.072Z,12.10
2022-12-28T02:00:51.131Z,13.80
2022-12-28T02:01:51.185Z,16.40
2022-12-28T02:02:51.079Z,10.80
2022-12-28T02:03:51.022Z,11.10
2022-12-28T02:04:51.015Z,11.80
2022-12-28T02:05:51.045Z,13.20
2022-12-28T02:06:50.989Z,15.10
2022-12-28T02:07:50.985Z,14.30
2022-12-28T02:08:50.984Z,14.70
2022-12-28T02:11:41.892Z,13.40
2022-12-28T02:12:36.657Z,14.90
2022-12-28T02:13:36.574Z,13.50
2022-12-28T02:14:36.569Z,15.00
2022-12-28T02:15:36.586Z,10.50
2022-12-28T02:16:36.587Z,14.30
2022-12-28T02:17:36.534Z,16.00
2022-12-28T02:18:36.529Z,12.90
2022-12-28T02:19:36.518Z,12.20
2022-12-28T02:20:36.507Z,13.40
2022-12-28T02:21:36.521Z,14.50
2022-12-28T02:22:36.483Z,14.00
2022-12-28T02:23:36.470Z,13.60
2022-12-28T02:24:36.467Z,12.40
2022-12-28T02:25:36.449Z,13.70
2022-12-28T02:26:36.496Z,15.00
2022-12-28T02:27:36.435Z,16.50
2022-12-28T02:28:36.426Z,19.90
2022-12-28T02:29:36.420Z,15.10
2022-12-28T02:30:36.430Z,13.00
2022-12-28T02:31:36.411Z,13.20
2022-12-28T02:32:36.398Z,13.20
2022-12-28T02:33:36.378Z,14.10
2022-12-28T02:34:36.370Z,14.90
2022-12-28T02:35:36.359Z,13.40
2022-12-28T02:36:37.495Z,16.20
2022-12-28T02:37:37.486Z,15.70
2022-12-28T02:38:37.450Z,16.20
2022-12-28T02:39:37.440Z,14.80
2022-12-28T02:40:37.428Z,15.60
2022-12-28T02:41:37.426Z,15.90
2022-12-28T02:42:37.407Z,12.70
2022-12-28T02:43:37.390Z,12.60
2022-12-28T02:44:37.405Z,13.60
2022-12-28T02:45:37.375Z,13.90
2022-12-28T02:46:37.387Z,19.00
2022-12-28T02:47:38.360Z,16.00
2022-12-28T02:48:37.367Z,16.00
2022-12-28T02:49:37.355Z,16.90
2022-12-28T02:50:37.327Z,18.80
2022-12-28T02:51:37.343Z,13.40
2022-12-28T02:52:37.313Z,17.00
2022-12-28T02:53:37.311Z,15.60
2022-12-28T02:54:37.294Z,15.70
2022-12-28T02:55:37.284Z,15.00
2022-12-28T02:56:37.290Z,15.00
2022-12-28T02:57:37.272Z,13.20
2022-12-28T02:58:37.252Z,14.70
2022-12-28T02:59:37.240Z,17.10
2022-12-28T03:00:37.221Z,13.60
2022-12-28T03:01:37.315Z,17.10
2022-12-28T03:02:37.341Z,11.80
2022-12-28T03:03:37.189Z,13.30
2022-12-28T03:04:37.196Z,14.90
2022-12-28T03:05:37.166Z,12.40
2022-12-28T03:06:37.189Z,15.50
2022-12-28T03:07:37.166Z,18.50
2022-12-28T03:08:37.150Z,16.20
2022-12-28T03:09:37.132Z,14.90
2022-12-28T03:10:38.134Z,15.30
2022-12-28T03:11:37.136Z,13.20
2022-12-28T03:12:37.093Z,15.90
2022-12-28T03:13:37.097Z,15.40
2022-12-28T03:14:37.076Z,16.70
2022-12-28T03:15:37.148Z,17.20
2022-12-28T03:16:37.076Z,15.20
2022-12-28T03:17:37.061Z,16.50
2022-12-28T03:18:37.055Z,15.40
2022-12-28T03:19:37.033Z,13.50
2022-12-28T03:20:37.036Z,15.90
2022-12-28T03:21:37.028Z,14.60
2022-12-28T03:22:37.002Z,13.50
2022-12-28T03:23:36.988Z,15.60
2022-12-28T03:24:36.999Z,12.90
2022-12-28T03:25:36.976Z,15.60
2022-12-28T03:26:36.989Z,16.60
2022-12-28T03:27:36.966Z,15.10
2022-12-28T03:28:36.950Z,17.20
2022-12-28T03:29:36.924Z,17.60
2022-12-28T03:30:36.922Z,15.70
2022-12-28T03:31:36.933Z,15.60
2022-12-28T03:32:36.906Z,18.70
2022-12-28T03:33:36.883Z,15.20
2022-12-28T03:34:37.898Z,15.50
2022-12-28T03:35:36.869Z,22.50
2022-12-28T03:36:36.872Z,13.40
2022-12-28T03:37:36.843Z,13.10
2022-12-28T03:38:36.845Z,14.10
2022-12-28T03:39:36.829Z,13.00
2022-12-28T03:40:36.822Z,15.90
2022-12-28T03:41:36.828Z,18.40
2022-12-28T03:42:36.809Z,13.50
2022-12-28T03:43:36.782Z,18.50
2022-12-28T03:44:36.773Z,16.80
2022-12-28T03:45:45.856Z,18.10
2022-12-28T03:46:37.810Z,21.30
2022-12-28T03:47:36.739Z,16.50
2022-12-28T03:48:36.729Z,19.10
2022-12-28T03:49:36.711Z,18.30
2022-12-28T03:50:36.714Z,16.10
2022-12-28T03:51:36.714Z,17.70
2022-12-28T03:52:36.702Z,17.80
2022-12-28T03:53:36.688Z,15.60
2022-12-28T03:54:36.675Z,18.60
2022-12-28T03:55:36.654Z,16.20
2022-12-28T03:56:36.666Z,16.30
2022-12-28T03:57:36.629Z,14.10
2022-12-28T03:58:36.632Z,19.40
2022-12-28T03:59:36.616Z,17.90
2022-12-28T04:00:36.600Z,19.40
2022-12-28T04:01:36.793Z,16.80
2022-12-28T04:02:36.700Z,15.90
2022-12-28T04:03:36.564Z,18.80
2022-12-28T04:04:36.570Z,19.70
2022-12-28T04:05:36.556Z,18.80
2022-12-28T04:06:36.645Z,17.80
2022-12-28T04:07:36.537Z,19.60
2022-12-28T04:08:36.519Z,17.40
2022-12-28T04:09:36.512Z,24.00
2022-12-28T04:10:36.510Z,15.20
2022-12-28T04:11:36.520Z,19.70
2022-12-28T04:12:36.479Z,16.90
2022-12-28T04:13:36.464Z,14.80
2022-12-28T04:14:36.471Z,15.40
2022-12-28T04:15:36.472Z,19.90
2022-12-28T04:16:36.456Z,19.00
2022-12-28T04:17:36.429Z,16.30
2022-12-28T04:18:36.425Z,19.80
2022-12-28T04:19:36.415Z,17.70
2022-12-28T04:20:36.407Z,19.90
2022-12-28T04:21:36.397Z,19.60
2022-12-28T04:22:36.386Z,17.60
2022-12-28T04:23:36.372Z,19.10
2022-12-28T04:24:36.373Z,17.60
2022-12-28T04:25:36.344Z,16.10
2022-12-28T04:26:36.358Z,15.80
2022-12-28T04:27:36.340Z,16.00
2022-12-28T04:28:36.323Z,16.20
2022-12-28T04:29:36.306Z,18.40
2022-12-28T04:30:36.306Z,17.60
2022-12-28T04:31:36.337Z,17.10
2022-12-28T04:32:36.284Z,15.70
2022-12-28T04:33:36.259Z,19.40
2022-12-28T04:34:36.265Z,20.10
2022-12-28T04:35:36.256Z,16.40
2022-12-28T04:36:36.256Z,17.40
2022-12-28T04:37:36.232Z,17.10
2022-12-28T04:38:36.225Z,17.50
2022-12-28T04:39:56.471Z,19.20
2022-12-28T04:40:37.203Z,20.20
2022-12-28T04:41:36.205Z,15.70
2022-12-28T04:42:36.186Z,19.30
2022-12-28T04:43:36.173Z,16.90
2022-12-28T04:44:36.165Z,17.40
2022-12-28T04:45:36.148Z,16.70
2022-12-28T04:46:36.261Z,16.90
2022-12-28T04:47:36.135Z,18.40
2022-12-28T04:48:36.123Z,19.40
2022-12-28T04:49:36.111Z,19.10
2022-12-28T04:50:36.110Z,17.40
2022-12-28T04:51:36.133Z,16.10
2022-12-28T04:52:36.081Z,18.50
2022-12-28T04:53:36.066Z,14.50
2022-12-28T04:54:36.072Z,19.90
2022-12-28T04:55:36.055Z,17.90
2022-12-28T04:56:36.055Z,17.10
2022-12-28T04:57:36.025Z,16.80
2022-12-28T04:58:36.029Z,17.00
2022-12-28T04:59:36.015Z,17.00
2022-12-28T05:00:36.051Z,18.40
2022-12-28T05:01:36.197Z,21.50
2022-12-28T05:02:36.031Z,17.90
2022-12-28T05:03:35.974Z,19.50
2022-12-28T05:04:35.962Z,17.20
2022-12-28T05:05:35.950Z,17.60
2022-12-28T05:06:35.955Z,18.10
2022-12-28T05:07:35.935Z,16.70
2022-12-28T05:08:35.966Z,17.70
2022-12-28T05:09:35.908Z,17.50
2022-12-28T05:10:35.913Z,17.90
2022-12-28T05:11:35.904Z,18.10
2022-12-28T05:12:35.882Z,18.50
2022-12-28T05:13:35.868Z,16.90
2022-12-28T05:14:37.330Z,18.70
2022-12-28T05:15:36.855Z,17.00
2022-12-28T05:16:35.875Z,18.50
2022-12-28T05:17:35.826Z,16.60
2022-12-28T05:18:35.810Z,18.80
2022-12-28T05:19:35.808Z,17.50
2022-12-28T05:20:35.787Z,15.90
2022-12-28T05:21:35.792Z,19.10
2022-12-28T05:22:40.649Z,18.60
2022-12-28T05:23:37.756Z,19.50
2022-12-28T05:24:35.738Z,14.80
2022-12-28T05:25:35.736Z,18.20
2022-12-28T05:26:35.740Z,17.70
2022-12-28T05:27:35.713Z,16.50
2022-12-28T05:28:35.709Z,16.20
2022-12-28T05:29:35.698Z,20.10
2022-12-28T05:30:35.695Z,17.20
2022-12-28T05:31:35.704Z,18.00
2022-12-28T05:32:35.664Z,19.30
2022-12-28T05:33:35.652Z,16.80
2022-12-28T05:34:35.643Z,14.80
2022-12-28T05:35:35.628Z,16.50
2022-12-28T05:36:35.640Z,18.70
2022-12-28T05:37:35.606Z,19.60
2022-12-28T05:38:35.601Z,16.10
2022-12-28T05:39:35.611Z,17.80
2022-12-28T05:40:35.570Z,14.70
2022-12-28T05:41:35.589Z,16.20
2022-12-28T05:42:35.569Z,14.80
2022-12-28T05:43:35.563Z,17.00
2022-12-28T05:44:35.528Z,16.80
2022-12-28T05:45:35.544Z,16.10
2022-12-28T05:46:35.556Z,15.60
2022-12-28T05:47:35.547Z,17.10
2022-12-28T05:48:35.492Z,18.10
2022-12-28T05:49:35.465Z,16.70
2022-12-28T05:50:35.466Z,15.70
2022-12-28T05:51:35.477Z,16.00
2022-12-28T05:52:37.012Z,15.60
2022-12-28T05:53:35.426Z,17.30
2022-12-28T05:54:35.420Z,15.20
2022-12-28T05:55:35.417Z,16.50
2022-12-28T05:56:35.417Z,20.30
2022-12-28T05:57:35.395Z,17.00
2022-12-28T05:58:35.377Z,17.20
2022-12-28T05:59:35.390Z,15.70
2022-12-28T06:00:35.368Z,17.80
2022-12-28T06:01:35.522Z,17.40
2022-12-28T06:02:35.409Z,18.00
2022-12-28T06:03:36.351Z,17.20
2022-12-28T06:04:35.341Z,16.70
2022-12-28T06:05:35.306Z,16.30
2022-12-28T06:06:35.315Z,17.10
2022-12-28T06:07:35.290Z,16.30
2022-12-28T06:08:35.280Z,14.70
2022-12-28T06:09:35.265Z,20.10
2022-12-28T06:10:35.257Z,19.70
2022-12-28T06:11:35.251Z,18.20
2022-12-28T06:12:35.258Z,19.40
2022-12-28T06:13:35.219Z,16.90
2022-12-28T06:14:35.215Z,17.40
2022-12-28T06:15:35.212Z,16.00
2022-12-28T06:16:35.331Z,20.60
2022-12-28T06:17:35.200Z,17.60
2022-12-28T06:18:35.187Z,16.60
2022-12-28T06:19:35.177Z,16.20
2022-12-28T06:20:35.155Z,19.70
2022-12-28T06:21:35.141Z,16.30
2022-12-28T06:22:35.147Z,18.50
2022-12-28T06:23:35.133Z,17.00
2022-12-28T06:24:35.108Z,16.20
2022-12-28T06:25:35.094Z,17.70
2022-12-28T06:26:35.091Z,16.40
2022-12-28T06:27:35.084Z,21.80
2022-12-28T06:28:35.065Z,16.30
2022-12-28T06:30:53.697Z,16.90
2022-12-28T06:31:53.796Z,17.20
2022-12-28T06:32:53.688Z,17.10
2022-12-28T06:33:53.671Z,17.20
2022-12-28T06:34:53.669Z,19.60
2022-12-28T06:35:53.655Z,19.10
2022-12-28T06:36:53.662Z,21.00
2022-12-28T06:37:53.642Z,21.30
2022-12-28T06:38:54.753Z,18.90
2022-12-28T06:39:54.735Z,18.90
2022-12-28T06:41:12.764Z,20.10
2022-12-28T06:41:56.715Z,16.00
2022-12-28T06:42:54.701Z,17.90
2022-12-28T06:43:54.699Z,16.70
2022-12-28T06:44:54.683Z,20.30
2022-12-28T06:45:54.698Z,19.40
2022-12-28T06:46:54.679Z,16.90
2022-12-28T06:47:54.651Z,16.60
2022-12-28T06:48:54.632Z,18.70
2022-12-28T06:49:54.624Z,15.40
2022-12-28T06:50:54.621Z,19.30
2022-12-28T06:51:54.672Z,17.30
2022-12-28T06:52:54.597Z,17.10
2022-12-28T06:53:54.600Z,17.60
2022-12-28T06:54:54.576Z,15.20
2022-12-28T06:55:54.565Z,19.70
2022-12-28T06:56:54.571Z,20.60
2022-12-28T06:57:54.537Z,15.40
2022-12-28T06:59:00.551Z,18.40
2022-12-28T06:59:56.526Z,19.70
2022-12-28T07:00:54.556Z,18.30
2022-12-28T07:01:54.767Z,23.60
2022-12-28T07:02:54.544Z,19.90
2022-12-28T07:03:54.479Z,18.00
2022-12-28T07:04:54.465Z,18.10
2022-12-28T07:05:54.455Z,18.20
2022-12-28T07:06:54.470Z,19.50
2022-12-28T07:07:54.428Z,17.90
2022-12-28T07:08:54.429Z,20.40
2022-12-28T07:09:54.418Z,20.20
2022-12-28T07:10:54.401Z,19.10
2022-12-28T07:11:54.408Z,16.70
2022-12-28T07:12:54.394Z,19.50
2022-12-28T07:13:54.369Z,19.80
2022-12-28T07:14:54.356Z,16.90
2022-12-28T07:15:54.346Z,17.90
2022-12-28T07:16:54.331Z,18.60
2022-12-28T07:17:54.343Z,17.50
2022-12-28T07:18:54.309Z,16.80
2022-12-28T07:19:54.290Z,16.00
2022-12-28T07:20:54.288Z,18.70
2022-12-28T07:21:54.290Z,20.20
2022-12-28T07:22:54.299Z,19.30
2022-12-28T07:23:54.273Z,17.00
2022-12-28T07:24:54.262Z,18.10
2022-12-28T07:25:54.239Z,16.60
2022-12-28T07:26:54.245Z,18.60
2022-12-28T07:27:54.248Z,20.10
2022-12-28T07:28:54.224Z,18.50
2022-12-28T07:29:54.204Z,18.70
2022-12-28T07:30:54.210Z,19.50
2022-12-28T07:31:54.183Z,16.40
2022-12-28T07:32:54.184Z,18.20
2022-12-28T07:33:54.154Z,19.70
2022-12-28T07:34:54.147Z,20.30
2022-12-28T07:35:54.136Z,17.80
2022-12-28T07:36:54.119Z,16.00
2022-12-28T07:37:54.127Z,15.90
2022-12-28T07:38:54.106Z,19.00
2022-12-28T07:39:54.087Z,20.30
2022-12-28T07:40:54.076Z,19.50
2022-12-28T07:41:54.064Z,20.70
2022-12-28T07:42:54.074Z,18.30
2022-12-28T07:43:54.041Z,19.10
2022-12-28T07:44:54.039Z,17.80
2022-12-28T07:45:54.096Z,18.30
2022-12-28T07:46:55.010Z,16.00
2022-12-28T07:47:54.020Z,16.50
2022-12-28T07:48:53.987Z,16.00
2022-12-28T07:49:53.973Z,17.00
2022-12-28T07:50:53.962Z,17.50
2022-12-28T07:51:53.948Z,16.10
2022-12-28T07:52:53.976Z,17.60
2022-12-28T07:53:53.924Z,20.00
2022-12-28T07:54:53.906Z,17.00
2022-12-28T07:55:53.904Z,18.20
2022-12-28T07:56:53.894Z,19.60
2022-12-28T07:57:53.907Z,17.20
2022-12-28T07:58:53.859Z,17.60
2022-12-28T07:59:53.861Z,18.80
2022-12-28T08:00:53.850Z,17.30
2022-12-28T08:01:53.919Z,18.40
2022-12-28T08:02:53.839Z,19.00
2022-12-28T08:03:53.863Z,16.60
2022-12-28T08:04:53.808Z,21.10
2022-12-28T08:05:53.792Z,19.00
2022-12-28T08:06:53.784Z,16.90
2022-12-28T08:07:57.154Z,19.60
2022-12-28T08:08:54.755Z,20.50
2022-12-28T08:09:53.739Z,16.80
2022-12-28T08:10:53.725Z,16.10
2022-12-28T08:11:53.736Z,18.50
2022-12-28T08:12:53.725Z,18.30
2022-12-28T08:13:53.691Z,16.90
2022-12-28T08:14:53.688Z,20.50
2022-12-28T08:15:53.686Z,16.60
2022-12-28T08:16:53.658Z,20.60
2022-12-28T08:17:53.688Z,18.00
2022-12-28T08:18:53.644Z,15.60
2022-12-28T08:19:53.630Z,18.80
2022-12-28T08:20:53.623Z,17.80
2022-12-28T08:21:54.420Z,16.70
2022-12-28T08:22:53.635Z,15.50
2022-12-28T08:23:53.578Z,18.10
2022-12-28T08:24:53.578Z,17.80
2022-12-28T08:25:53.560Z,18.00
2022-12-28T08:26:53.551Z,17.00
2022-12-28T08:27:53.555Z,16.60
2022-12-28T08:28:53.528Z,15.30
2022-12-28T08:29:53.528Z,17.70
2022-12-28T08:30:53.538Z,20.40
2022-12-28T08:31:53.497Z,17.30
2022-12-28T08:32:53.513Z,16.50
2022-12-28T08:33:53.505Z,16.50
2022-12-28T08:34:53.456Z,15.50
2022-12-28T08:35:53.453Z,16.70
2022-12-28T08:36:53.442Z,16.90
2022-12-28T08:37:53.456Z,19.10
2022-12-28T08:38:53.417Z,19.40
2022-12-28T08:39:53.413Z,17.80
2022-12-28T08:40:57.399Z,18.20
2022-12-28T08:41:54.390Z,14.50
2022-12-28T08:42:53.395Z,17.10
2022-12-28T08:43:53.360Z,13.70
2022-12-28T08:44:53.370Z,17.30
2022-12-28T08:45:53.395Z,17.20
2022-12-28T08:46:53.422Z,16.30
2022-12-28T08:47:53.352Z,14.70
2022-12-28T08:48:53.324Z,17.80
2022-12-28T08:49:53.303Z,18.60
2022-12-28T08:50:53.288Z,17.20
2022-12-28T08:51:53.282Z,17.30
2022-12-28T08:52:53.265Z,17.60
2022-12-28T08:53:53.275Z,17.70
2022-12-28T08:54:53.242Z,15.30
2022-12-28T08:55:53.236Z,14.80
2022-12-28T08:56:53.232Z,17.50
2022-12-28T08:57:53.213Z,16.60
2022-12-28T08:58:53.214Z,18.60
2022-12-28T08:59:53.187Z,17.00
2022-12-28T09:00:53.173Z,17.50
2022-12-28T09:01:53.218Z,15.70
2022-12-28T09:02:53.216Z,15.50
2022-12-28T09:03:53.170Z,18.00
2022-12-28T09:04:53.123Z,13.50
2022-12-28T09:05:54.713Z,14.70
2022-12-28T09:06:54.095Z,15.30
2022-12-28T09:07:59.309Z,15.60
2022-12-28T09:09:09.011Z,14.00
2022-12-28T09:09:55.099Z,16.60
2022-12-28T09:10:53.060Z,18.00
2022-12-28T09:11:53.067Z,15.20
2022-12-28T09:12:53.036Z,15.30
2022-12-28T09:13:53.046Z,13.70
2022-12-28T09:14:53.004Z,17.30
2022-12-28T09:15:53.067Z,14.60
2022-12-28T09:16:52.985Z,16.60
2022-12-28T09:17:52.990Z,15.80
2022-12-28T09:18:52.991Z,15.40
2022-12-28T09:19:52.953Z,14.60
2022-12-28T09:20:52.953Z,13.40
2022-12-28T09:21:52.957Z,14.40
2022-12-28T09:22:52.915Z,16.30
2022-12-28T09:23:52.929Z,14.90
2022-12-28T09:24:52.899Z,14.40
2022-12-28T09:25:52.881Z,12.70
2022-12-28T09:26:53.252Z,16.40
2022-12-28T09:27:58.963Z,16.20
2022-12-28T09:28:54.874Z,14.10
2022-12-28T09:29:52.847Z,17.80
2022-12-28T09:30:52.870Z,14.60
2022-12-28T09:31:52.818Z,12.70
2022-12-28T09:32:52.798Z,13.10
2022-12-28T09:34:32.109Z,12.30
2022-12-28T09:34:54.784Z,14.60
2022-12-28T09:35:52.769Z,15.30
2022-12-28T09:36:52.764Z,14.80
2022-12-28T09:37:52.746Z,15.20
2022-12-28T09:38:52.782Z,14.30
2022-12-28T09:39:55.590Z,12.30
2022-12-28T09:40:53.738Z,15.30
2022-12-28T09:41:52.708Z,12.50
2022-12-28T09:42:52.684Z,17.00
2022-12-28T09:43:52.704Z,12.50
2022-12-28T09:44:52.663Z,16.20
2022-12-28T09:45:52.679Z,14.80
2022-12-28T09:46:52.692Z,15.10
2022-12-28T09:47:52.624Z,14.10
2022-12-28T09:48:52.646Z,16.80
2022-12-28T09:49:52.611Z,15.70
2022-12-28T09:50:52.600Z,14.00
2022-12-28T09:51:52.593Z,12.20
2022-12-28T09:52:52.576Z,13.00
2022-12-28T09:53:52.579Z,13.50
2022-12-28T09:54:52.551Z,15.00
2022-12-28T09:55:52.544Z,12.20
2022-12-28T09:56:52.529Z,13.80
2022-12-28T09:57:52.528Z,14.10
2022-12-28T09:58:52.527Z,14.10
2022-12-28T09:59:52.510Z,12.00
2022-12-28T10:00:52.501Z,13.00
2022-12-28T10:01:52.531Z,15.20
2022-12-28T10:02:52.576Z,12.60
2022-12-28T10:03:52.479Z,14.40
2022-12-28T10:04:52.442Z,14.40
2022-12-28T10:05:52.429Z,11.80
2022-12-28T10:06:52.431Z,10.40
2022-12-28T10:07:52.408Z,12.30
2022-12-28T10:08:52.420Z,12.50
2022-12-28T10:09:52.376Z,10.90
2022-12-28T10:10:52.397Z,10.60
2022-12-28T10:11:52.364Z,11.70
2022-12-28T10:12:52.355Z,11.30
2022-12-28T10:13:55.095Z,13.50
2022-12-28T10:14:53.341Z,12.50
2022-12-28T10:15:52.329Z,12.00
2022-12-28T10:16:52.307Z,10.40
2022-12-28T10:17:52.313Z,12.60
2022-12-28T10:18:52.303Z,11.30
2022-12-28T10:19:52.268Z,13.70
2022-12-28T10:20:52.256Z,10.60
2022-12-28T10:21:52.239Z,11.40
2022-12-28T10:22:52.241Z,11.90
2022-12-28T10:24:54.215Z,13.10
2022-12-28T10:25:52.213Z,11.00
2022-12-28T10:26:52.195Z,8.80
2022-12-28T10:27:52.182Z,13.20
2022-12-28T10:28:52.191Z,12.00
2022-12-28T10:29:52.168Z,12.50
2022-12-28T10:30:52.144Z,10.40
2022-12-28T10:31:52.133Z,11.20
2022-12-28T10:32:53.717Z,12.30
2022-12-28T10:33:52.132Z,11.40
2022-12-28T10:34:52.097Z,12.20
2022-12-28T10:35:52.093Z,10.70
2022-12-28T10:36:52.077Z,10.80
2022-12-28T10:37:52.058Z,10.40
2022-12-28T10:38:52.084Z,11.90
2022-12-28T10:39:52.055Z,10.10
2022-12-28T10:40:52.042Z,11.60
2022-12-28T10:41:52.026Z,11.80
2022-12-28T10:42:52.014Z,9.70
2022-12-28T10:44:21.406Z,9.10
2022-12-28T10:44:54.004Z,11.60
2022-12-28T10:45:51.995Z,9.90
2022-12-28T10:46:52.009Z,10.90
2022-12-28T10:47:51.970Z,10.40
2022-12-28T10:48:51.975Z,10.50
2022-12-28T10:50:18.553Z,9.90
2022-12-28T10:50:52.936Z,10.50
2022-12-28T10:51:51.921Z,11.80
2022-12-28T10:52:51.918Z,9.30
2022-12-28T10:53:51.909Z,9.50
2022-12-28T10:54:54.644Z,8.30
2022-12-28T10:55:53.881Z,9.90
2022-12-28T10:56:51.868Z,13.00
2022-12-28T10:58:27.317Z,8.20
2022-12-28T10:58:53.872Z,9.00
2022-12-28T10:59:51.843Z,10.30
2022-12-28T11:00:52.529Z,10.10
2022-12-28T11:01:52.979Z,12.30
2022-12-28T11:02:52.022Z,10.00
2022-12-28T11:03:51.818Z,13.80
2022-12-28T11:04:51.779Z,12.20
2022-12-28T11:05:57.089Z,12.20
2022-12-28T11:06:52.767Z,9.70
2022-12-28T11:07:51.749Z,8.30
2022-12-28T11:08:51.760Z,8.50
2022-12-28T11:09:51.714Z,9.90
2022-12-28T11:10:51.716Z,10.00
2022-12-28T11:11:51.711Z,9.50
2022-12-28T11:12:51.698Z,8.70
2022-12-28T11:13:51.709Z,11.60
2022-12-28T11:14:51.679Z,11.90
2022-12-28T11:15:51.666Z,11.30
2022-12-28T11:16:51.703Z,10.40
2022-12-28T11:17:51.630Z,7.80
2022-12-28T11:18:51.650Z,10.40
2022-12-28T11:19:51.622Z,7.90
2022-12-28T11:20:51.616Z,8.20
2022-12-28T11:21:51.600Z,11.10
2022-12-28T11:22:51.592Z,7.40
2022-12-28T11:23:51.612Z,11.70
2022-12-28T11:24:51.575Z,8.10
2022-12-28T11:25:51.562Z,8.60
2022-12-28T11:26:51.546Z,9.70
2022-12-28T11:27:51.547Z,11.40
2022-12-28T11:28:51.595Z,8.10
2022-12-28T11:29:51.523Z,9.90
2022-12-28T11:30:51.514Z,10.60
2022-12-28T11:31:51.562Z,6.80
2022-12-28T11:32:51.490Z,10.60
2022-12-28T11:33:51.487Z,11.00
2022-12-28T11:34:51.465Z,8.00
2022-12-28T11:35:51.454Z,7.30
2022-12-28T11:36:51.444Z,9.90
2022-12-28T11:37:51.440Z,9.30
2022-12-28T11:38:51.438Z,10.40
2022-12-28T11:39:51.452Z,9.70
2022-12-28T11:40:51.450Z,11.80
2022-12-28T11:42:19.432Z,7.30
2022-12-28T11:42:53.374Z,8.80
2022-12-28T11:43:51.390Z,8.30
2022-12-28T11:44:51.363Z,7.20
2022-12-28T11:45:51.377Z,8.60
2022-12-28T11:46:51.340Z,8.00
2022-12-28T11:47:51.325Z,8.00
2022-12-28T11:48:51.343Z,9.00
2022-12-28T11:49:51.308Z,8.00
2022-12-28T11:50:51.317Z,9.50
2022-12-28T11:51:51.288Z,9.00
2022-12-28T11:52:51.272Z,8.40
2022-12-28T11:53:51.307Z,9.90
2022-12-28T11:54:51.276Z,9.00
2022-12-28T11:55:51.258Z,13.20
2022-12-28T11:56:51.246Z,9.00
2022-12-28T11:57:51.220Z,11.00
2022-12-28T11:58:51.230Z,10.60
2022-12-28T11:59:51.204Z,9.10
2022-12-28T12:00:51.206Z,12.50
2022-12-28T12:01:51.229Z,8.10
2022-12-28T12:02:51.160Z,8.90
2022-12-28T12:03:51.185Z,8.40
2022-12-28T12:04:51.176Z,9.10
2022-12-28T12:05:51.136Z,9.20
2022-12-28T12:06:51.123Z,11.70
2022-12-28T12:07:51.116Z,11.40
2022-12-28T12:08:51.126Z,9.00
2022-12-28T12:09:51.096Z,9.70
2022-12-28T12:10:51.089Z,10.50
2022-12-28T12:11:51.072Z,6.90
2022-12-28T12:12:51.074Z,6.60
2022-12-28T12:13:51.066Z,8.90
2022-12-28T12:14:51.059Z,8.70
2022-12-28T12:15:51.031Z,8.20
2022-12-28T12:16:51.132Z,8.30
2022-12-28T12:17:51.018Z,8.70
2022-12-28T12:18:51.018Z,7.60
2022-12-28T12:19:51.015Z,7.90
2022-12-28T12:20:50.981Z,7.50
2022-12-28T12:21:50.972Z,7.00
2022-12-28T12:22:50.962Z,8.50
2022-12-28T12:23:50.956Z,9.80
2022-12-28T12:24:50.957Z,9.60
2022-12-28T12:25:50.930Z,8.30
2022-12-28T12:26:50.923Z,11.20
2022-12-28T12:27:50.907Z,8.20
2022-12-28T12:28:50.911Z,10.80
2022-12-28T12:29:50.932Z,8.10
2022-12-28T12:31:23.316Z,7.50
2022-12-28T12:31:50.875Z,6.90
2022-12-28T12:32:50.874Z,8.60
2022-12-28T12:33:50.856Z,10.80
2022-12-28T12:34:50.873Z,8.70
2022-12-28T12:35:50.824Z,9.80
2022-12-28T12:36:50.822Z,10.40
2022-12-28T12:37:50.819Z,8.80
2022-12-28T12:38:50.803Z,7.20
2022-12-28T12:39:50.803Z,6.60
2022-12-28T12:40:50.776Z,12.60
2022-12-28T12:41:50.772Z,6.10
2022-12-28T12:42:50.745Z,9.20
2022-12-28T12:43:50.745Z,10.80
2022-12-28T12:44:50.752Z,8.20
2022-12-28T12:45:50.755Z,7.90
2022-12-28T12:46:50.708Z,9.40
2022-12-28T12:47:50.717Z,9.70
2022-12-28T12:48:50.715Z,8.30
2022-12-28T12:49:50.720Z,10.20
2022-12-28T12:50:50.673Z,9.10
2022-12-28T12:51:50.675Z,8.50
2022-12-28T12:52:50.680Z,6.30
2022-12-28T12:53:50.651Z,9.10
2022-12-28T12:54:50.652Z,8.90
2022-12-28T12:55:50.625Z,6.70
2022-12-28T12:56:50.616Z,9.70
2022-12-28T12:57:50.604Z,9.40
2022-12-28T12:58:50.589Z,8.70
2022-12-28T12:59:50.602Z,9.80